createdAt,value
2023-05-15T00:00:45.713Z,99754.88
2023-05-15T00:03:34.512Z,99742.09
2023-05-15T00:06:23.475Z,99751.78
2023-05-15T00:09:12.338Z,99745.78
2023-05-15T00:12:00.874Z,99749.91
2023-05-15T00:14:50.677Z,99749.09
2023-05-15T00:17:39.411Z,99747.25
2023-05-15T00:20:28.116Z,99748.13
2023-05-15T00:23:16.614Z,99742.97
2023-05-15T00:26:05.352Z,99752.88
2023-05-15T00:28:53.917Z,99754.75
2023-05-15T00:31:44.176Z,99749.59
2023-05-15T00:34:32.768Z,99748.56
2023-05-15T00:37:21.595Z,99634.94
2023-05-15T00:40:11.750Z,99750.41
2023-05-15T00:43:00.893Z,99756.56
2023-05-15T00:45:49.556Z,99756.13
2023-05-15T00:48:40.372Z,99701.47
2023-05-15T00:51:28.886Z,99758.81
2023-05-15T00:54:17.747Z,99764.78
2023-05-15T00:57:07.079Z,99763.78
2023-05-15T00:59:58.533Z,99767.91
2023-05-15T01:02:47.184Z,99765.28
2023-05-15T01:05:37.302Z,99759.69
2023-05-15T01:08:28.959Z,99766.69
2023-05-15T01:11:18.418Z,99771.44
2023-05-15T01:14:08.285Z,99775.94
2023-05-15T01:16:56.889Z,99769.56
2023-05-15T01:19:46.348Z,99772.25
2023-05-15T01:23:01.156Z,99778.50
2023-05-15T01:26:33.887Z,99771.84
2023-05-15T01:29:27.167Z,99776.03
2023-05-15T01:32:20.950Z,99762.63
2023-05-15T01:35:14.398Z,99777.03
2023-05-15T01:38:12.456Z,99768.84
2023-05-15T01:41:04.099Z,99763.69
2023-05-15T01:43:57.972Z,99773.38
2023-05-15T01:46:51.037Z,99777.97
2023-05-15T01:49:40.116Z,99777.13
2023-05-15T01:52:31.965Z,99768.72
2023-05-15T01:55:22.342Z,99770.16
2023-05-15T01:58:11.239Z,99767.69
2023-05-15T02:01:00.803Z,99766.91
2023-05-15T02:03:51.175Z,99764.25
2023-05-15T02:06:41.104Z,99757.66
2023-05-15T02:09:30.028Z,99757.03
2023-05-15T02:12:19.154Z,99759.56
2023-05-15T02:15:09.401Z,99754.84
2023-05-15T02:17:58.207Z,99709.56
2023-05-15T02:20:48.182Z,99751.94
2023-05-15T02:23:36.606Z,99756.91
2023-05-15T02:26:31.880Z,99745.41
2023-05-15T02:29:22.045Z,99755.53
2023-05-15T02:32:16.150Z,99755.31
2023-05-15T02:35:11.781Z,99694.25
2023-05-15T02:38:04.145Z,99756.53
2023-05-15T02:40:52.633Z,99741.25
2023-05-15T02:43:41.286Z,99750.97
2023-05-15T02:46:30.820Z,99748.66
2023-05-15T02:49:19.314Z,99743.25
2023-05-15T02:52:07.902Z,99683.88
2023-05-15T02:54:57.962Z,99744.25
2023-05-15T02:57:46.438Z,99742.41
2023-05-15T03:00:34.891Z,99745.00
2023-05-15T03:03:23.657Z,99740.84
2023-05-15T03:06:12.089Z,99746.63
2023-05-15T03:09:00.670Z,99746.59
2023-05-15T03:11:50.444Z,99741.59
2023-05-15T03:14:39.185Z,99760.56
2023-05-15T03:17:27.883Z,99746.69
2023-05-15T03:20:16.529Z,99754.91
2023-05-15T03:23:04.972Z,99751.56
2023-05-15T03:25:53.472Z,99752.00
2023-05-15T03:28:43.261Z,99751.56
2023-05-15T03:31:31.763Z,99747.81
2023-05-15T03:34:20.251Z,99756.84
2023-05-15T03:37:08.879Z,99763.28
2023-05-15T03:39:57.444Z,99750.81
2023-05-15T03:42:45.900Z,99767.56
2023-05-15T03:45:35.995Z,99764.88
2023-05-15T03:48:24.755Z,99752.81
2023-05-15T03:51:13.381Z,99769.25
2023-05-15T03:54:05.033Z,99775.06
2023-05-15T03:56:53.885Z,99770.13
2023-05-15T03:59:42.421Z,99773.47
2023-05-15T04:02:32.296Z,99759.69
2023-05-15T04:05:21.883Z,99744.59
2023-05-15T04:08:12.341Z,99746.91
2023-05-15T04:11:00.859Z,99760.06
2023-05-15T04:13:49.581Z,99759.03
2023-05-15T04:16:38.068Z,99755.72
2023-05-15T04:19:27.918Z,99750.75
2023-05-15T04:22:16.387Z,99767.59
2023-05-15T04:25:05.942Z,99776.22
2023-05-15T04:27:54.768Z,99750.28
2023-05-15T04:30:43.197Z,99764.56
2023-05-15T04:33:31.644Z,99767.47
2023-05-15T04:36:22.523Z,99769.91
2023-05-15T04:39:11.125Z,99771.94
2023-05-15T04:41:59.724Z,99776.25
2023-05-15T04:44:48.478Z,99763.22
2023-05-15T04:47:37.439Z,99761.00
2023-05-15T04:50:26.441Z,99774.88
2023-05-15T04:53:16.399Z,99760.66
2023-05-15T04:56:05.335Z,99766.72
2023-05-15T04:58:53.833Z,99761.88
2023-05-15T05:01:42.318Z,99765.91
2023-05-15T05:04:31.052Z,99769.00
2023-05-15T05:07:19.571Z,99761.75
2023-05-15T05:10:10.751Z,99775.63
2023-05-15T05:12:59.436Z,99768.44
2023-05-15T05:15:48.253Z,99641.53
2023-05-15T05:18:37.038Z,99779.19
2023-05-15T05:21:25.815Z,99778.75
2023-05-15T05:24:14.549Z,99261.69
2023-05-15T05:27:04.849Z,99732.19
2023-05-15T05:29:54.191Z,99783.41
2023-05-15T05:32:42.791Z,99784.66
2023-05-15T05:35:31.391Z,99784.78
2023-05-15T05:38:20.075Z,99781.19
2023-05-15T05:41:08.827Z,99782.50
2023-05-15T05:43:58.669Z,99788.38
2023-05-15T05:46:47.125Z,99784.06
2023-05-15T05:49:35.893Z,99777.59
2023-05-15T05:52:24.386Z,99787.00
2023-05-15T05:55:12.863Z,99787.25
2023-05-15T05:58:02.223Z,99789.75
2023-05-15T06:00:53.493Z,99794.63
2023-05-15T06:03:44.854Z,99776.03
2023-05-15T06:06:34.564Z,99792.91
2023-05-15T06:09:23.175Z,99791.00
2023-05-15T06:12:12.342Z,99788.84
2023-05-15T06:15:00.828Z,99790.34
2023-05-15T06:17:50.685Z,99763.69
2023-05-15T06:20:39.261Z,99788.28
2023-05-15T06:23:27.813Z,99790.94
2023-05-15T06:26:16.392Z,99792.72
2023-05-15T06:29:04.880Z,99794.19
2023-05-15T06:31:53.370Z,99760.25
2023-05-15T06:34:43.404Z,99806.47
2023-05-15T06:37:31.873Z,99795.25
2023-05-15T06:40:20.535Z,99799.75
2023-05-15T06:43:08.970Z,99794.19
2023-05-15T06:45:57.706Z,99808.03
2023-05-15T06:48:46.208Z,99797.63
2023-05-15T06:51:36.028Z,99803.75
2023-05-15T06:54:24.676Z,99804.56
2023-05-15T06:57:13.125Z,99788.81
2023-05-15T07:00:01.630Z,99802.44
2023-05-15T07:02:50.133Z,99803.56
2023-05-15T07:05:38.584Z,99769.09
2023-05-15T07:08:28.529Z,99802.00
2023-05-15T07:11:17.253Z,99790.84
2023-05-15T07:14:07.167Z,99794.97
2023-05-15T07:16:55.701Z,99794.72
2023-05-15T07:19:44.664Z,99806.56
2023-05-15T07:22:38.557Z,99803.31
2023-05-15T07:25:31.553Z,99811.50
2023-05-15T07:28:20.025Z,99812.50
2023-05-15T07:31:08.566Z,99812.25
2023-05-15T07:33:57.083Z,99809.84
2023-05-15T07:36:45.633Z,99819.81
2023-05-15T07:39:34.428Z,99818.41
2023-05-15T07:42:24.282Z,99820.47
2023-05-15T07:45:12.832Z,99813.63
2023-05-15T07:48:14.448Z,99803.56
2023-05-15T07:51:03.003Z,99817.50
2023-05-15T07:53:51.687Z,99814.81
2023-05-15T07:56:40.306Z,99812.66
2023-05-15T07:59:30.989Z,99787.94
2023-05-15T08:02:19.712Z,99799.84
2023-05-15T08:05:08.971Z,99794.78
2023-05-15T08:07:57.658Z,99799.78
2023-05-15T08:10:46.209Z,99791.09
2023-05-15T08:13:34.744Z,99803.72
2023-05-15T08:16:24.654Z,99796.00
2023-05-15T08:19:13.390Z,99793.69
2023-05-15T08:22:01.869Z,99792.09
2023-05-15T08:24:50.411Z,99787.47
2023-05-15T08:27:38.969Z,99791.03
2023-05-15T08:30:27.670Z,99779.84
2023-05-15T08:33:17.495Z,99789.13
2023-05-15T08:36:06.632Z,99791.00
2023-05-15T08:38:55.144Z,99789.00
2023-05-15T08:41:48.938Z,99788.00
2023-05-15T08:44:37.810Z,99791.28
2023-05-15T08:47:29.195Z,99794.28
2023-05-15T08:50:19.175Z,99789.66
2023-05-15T08:53:08.046Z,99794.28
2023-05-15T08:55:56.939Z,99797.00
2023-05-15T08:58:45.672Z,99793.50
2023-05-15T09:01:34.951Z,99779.34
2023-05-15T09:04:25.921Z,99780.41
2023-05-15T09:07:16.502Z,99786.13
2023-05-15T09:10:05.801Z,99780.44
2023-05-15T09:12:54.657Z,99787.19
2023-05-15T09:15:43.475Z,99781.41
2023-05-15T09:18:33.708Z,99783.06
2023-05-15T09:21:26.056Z,99711.84
2023-05-15T09:24:21.532Z,99768.97
2023-05-15T09:27:11.341Z,99776.06
2023-05-15T09:30:11.237Z,99777.31
2023-05-15T09:33:01.328Z,99774.53
2023-05-15T09:35:49.945Z,99768.66
2023-05-15T09:38:42.269Z,99768.44
2023-05-15T09:41:32.117Z,99768.09
2023-05-15T09:44:22.149Z,99761.97
2023-05-15T09:47:11.126Z,99753.41
2023-05-15T09:49:59.725Z,99749.94
2023-05-15T09:52:48.282Z,99753.25
2023-05-15T09:55:36.980Z,99746.00
2023-05-15T09:58:26.876Z,99747.72
2023-05-15T10:01:20.883Z,99738.41
2023-05-15T10:04:09.409Z,99731.47
2023-05-15T10:06:57.909Z,99735.41
2023-05-15T10:09:46.415Z,99736.53
2023-05-15T10:12:36.713Z,99729.94
2023-05-15T10:15:26.774Z,99729.34
2023-05-15T10:18:15.707Z,99724.59
2023-05-15T10:21:05.011Z,99706.88
2023-05-15T10:23:56.427Z,99719.25
2023-05-15T10:26:44.942Z,99720.31
2023-05-15T10:29:34.243Z,99713.63
2023-05-15T10:32:24.583Z,99717.53
2023-05-15T10:35:13.435Z,99716.31
2023-05-15T10:38:05.227Z,99712.50
2023-05-15T10:40:59.754Z,99716.97
2023-05-15T10:43:51.236Z,99704.38
2023-05-15T10:46:40.023Z,99697.09
2023-05-15T10:49:29.852Z,99691.94
2023-05-15T10:52:18.410Z,99682.13
2023-05-15T10:55:08.637Z,99683.41
2023-05-15T10:57:57.249Z,99680.44
2023-05-15T11:00:46.423Z,99677.28
2023-05-15T11:03:48.544Z,99668.78
2023-05-15T11:06:41.105Z,99630.69
2023-05-15T11:09:37.109Z,99669.25
2023-05-15T11:12:25.977Z,99668.16
2023-05-15T11:15:21.937Z,99670.00
2023-05-15T11:18:10.708Z,99671.59
2023-05-15T11:21:09.592Z,99665.31
2023-05-15T11:24:06.648Z,99655.28
2023-05-15T11:27:00.835Z,99577.69
2023-05-15T11:30:06.571Z,99657.69
2023-05-15T11:33:00.525Z,99666.50
2023-05-15T11:35:49.614Z,99666.03
2023-05-15T11:38:40.146Z,99649.22
2023-05-15T11:41:33.286Z,99672.97
2023-05-15T11:44:22.848Z,99679.69
2023-05-15T11:47:11.689Z,99630.72
2023-05-15T11:50:00.636Z,99688.31
2023-05-15T11:52:50.212Z,99687.31
2023-05-15T11:55:40.202Z,99672.81
2023-05-15T11:58:30.147Z,99698.75
2023-05-15T12:01:18.586Z,99691.41
2023-05-15T12:04:13.566Z,99688.97
2023-05-15T12:07:03.319Z,99688.47
2023-05-15T12:09:53.389Z,99683.03
2023-05-15T12:12:42.258Z,99668.34
2023-05-15T12:15:32.129Z,99592.69
2023-05-15T12:18:20.728Z,99658.47
2023-05-15T12:21:11.031Z,99658.22
2023-05-15T12:26:50.959Z,99657.69
2023-05-15T12:29:40.648Z,99661.78
2023-05-15T12:32:32.227Z,99656.88
2023-05-15T12:35:20.862Z,99627.00
2023-05-15T12:38:09.574Z,99635.72
2023-05-15T12:40:58.181Z,99643.00
2023-05-15T12:43:46.778Z,99645.75
2023-05-15T12:46:35.394Z,99636.22
2023-05-15T12:49:25.385Z,99643.88
2023-05-15T12:52:16.383Z,99644.16
2023-05-15T12:55:05.310Z,99651.22
2023-05-15T12:57:53.881Z,99646.31
2023-05-15T13:00:44.873Z,99652.53
2023-05-15T13:03:33.474Z,99657.63
2023-05-15T13:06:29.351Z,99648.63
2023-05-15T13:09:26.909Z,99621.47
2023-05-15T13:12:15.666Z,99644.41
2023-05-15T13:15:04.377Z,99633.53
2023-05-15T13:17:59.444Z,99637.31
2023-05-15T13:20:49.701Z,99635.88
2023-05-15T13:23:39.518Z,99628.81
2023-05-15T13:26:28.000Z,99637.31
2023-05-15T13:29:16.494Z,99640.78
2023-05-15T13:32:05.475Z,99624.84
2023-05-15T13:34:54.916Z,99631.09
2023-05-15T13:37:43.429Z,99630.69
2023-05-15T13:40:35.466Z,99625.63
2023-05-15T13:43:26.308Z,99609.06
2023-05-15T13:46:15.158Z,99619.72
2023-05-15T13:49:04.689Z,99600.56
2023-05-15T13:51:54.249Z,99619.69
2023-05-15T13:54:42.731Z,99609.88
2023-05-15T13:57:32.627Z,99613.47
2023-05-15T14:00:21.983Z,99612.78
2023-05-15T14:03:12.737Z,99611.25
2023-05-15T14:06:03.314Z,99611.19
2023-05-15T14:08:51.887Z,99611.09
2023-05-15T14:11:40.384Z,99621.63
2023-05-15T14:14:30.264Z,99629.66
2023-05-15T14:17:19.186Z,99629.53
2023-05-15T14:20:09.978Z,99636.44
2023-05-15T14:22:58.504Z,99634.81
2023-05-15T14:25:46.972Z,99633.19
2023-05-15T14:28:35.440Z,99630.19
2023-05-15T14:31:25.521Z,99622.31
2023-05-15T14:34:14.035Z,99630.47
2023-05-15T14:37:02.934Z,99629.63
2023-05-15T14:39:51.701Z,99633.69
2023-05-15T14:42:40.744Z,99634.41
2023-05-15T14:45:29.265Z,99641.63
2023-05-15T14:48:20.149Z,99643.16
2023-05-15T14:51:08.725Z,99578.84
2023-05-15T14:53:57.313Z,99648.19
2023-05-15T14:56:46.044Z,99641.19
2023-05-15T14:59:34.604Z,99639.59
2023-05-15T15:02:23.173Z,99638.84
2023-05-15T15:05:13.101Z,99635.84
2023-05-15T15:08:03.653Z,99575.59
2023-05-15T15:10:53.310Z,99631.59
2023-05-15T15:13:42.066Z,99617.47
2023-05-15T15:16:30.624Z,99579.16
2023-05-15T15:19:20.408Z,99623.19
2023-05-15T15:22:10.481Z,99647.13
2023-05-15T15:25:00.964Z,99635.97
2023-05-15T15:27:50.088Z,99643.56
2023-05-15T15:30:38.790Z,99634.88
2023-05-15T15:33:27.732Z,99642.75
2023-05-15T15:36:16.201Z,99642.22
2023-05-15T15:39:06.267Z,99640.06
2023-05-15T15:41:54.916Z,99646.03
2023-05-15T15:44:43.531Z,99641.69
2023-05-15T15:47:32.418Z,99491.63
2023-05-15T15:50:21.295Z,99650.84
2023-05-15T15:53:09.814Z,99657.34
2023-05-15T15:55:59.611Z,99655.75
2023-05-15T15:58:48.080Z,99645.41
2023-05-15T16:01:36.871Z,99626.72
2023-05-15T16:04:25.737Z,99668.03
2023-05-15T16:07:14.251Z,99671.59
2023-05-15T16:10:11.806Z,99670.25
2023-05-15T16:13:12.555Z,99669.16
2023-05-15T16:16:01.093Z,99681.88
2023-05-15T16:18:49.620Z,99667.69
2023-05-15T16:21:38.230Z,99673.69
2023-05-15T16:24:26.834Z,99654.06
2023-05-15T16:27:15.386Z,99678.78
2023-05-15T16:30:05.986Z,99688.03
2023-05-15T16:32:57.444Z,99683.69
2023-05-15T16:35:46.211Z,99691.81
2023-05-15T16:38:34.841Z,99664.34
2023-05-15T16:41:23.426Z,99623.72
2023-05-15T16:44:11.945Z,99686.09
2023-05-15T16:47:02.053Z,99695.09
2023-05-15T16:49:50.687Z,99665.16
2023-05-15T16:52:45.246Z,99665.69
2023-05-15T16:55:34.102Z,99697.50
2023-05-15T16:58:23.163Z,99694.78
2023-05-15T17:01:11.672Z,99698.84
2023-05-15T17:04:01.695Z,99693.13
2023-05-15T17:06:50.322Z,99700.25
2023-05-15T17:09:40.683Z,99700.22
2023-05-15T17:12:29.575Z,99695.34
2023-05-15T17:15:18.040Z,99685.50
2023-05-15T17:18:06.831Z,99703.16
2023-05-15T17:20:56.777Z,99700.44
2023-05-15T17:23:45.293Z,99702.41
2023-05-15T17:26:33.903Z,99688.13
2023-05-15T17:29:22.395Z,99702.34
2023-05-15T17:32:11.171Z,99679.38
2023-05-15T17:34:59.828Z,99715.84
2023-05-15T17:37:49.749Z,99717.38
2023-05-15T17:40:38.525Z,99712.94
2023-05-15T17:43:27.046Z,99726.50
2023-05-15T17:46:15.565Z,99706.41
2023-05-15T17:49:04.174Z,99738.63
2023-05-15T17:51:52.828Z,99716.53
2023-05-15T17:54:42.714Z,99731.25
2023-05-15T17:57:31.615Z,99732.03
2023-05-15T18:00:20.522Z,99730.31
2023-05-15T18:03:09.262Z,99751.91
2023-05-15T18:05:58.125Z,99755.59
2023-05-15T18:08:47.499Z,99753.31
2023-05-15T18:11:37.386Z,99755.31
2023-05-15T18:14:26.254Z,99758.63
2023-05-15T18:17:16.105Z,99765.78
2023-05-15T18:20:07.667Z,99772.31
2023-05-15T18:22:56.207Z,99760.47
2023-05-15T18:25:44.711Z,99771.28
2023-05-15T18:28:34.607Z,99771.94
2023-05-15T18:31:23.231Z,99779.72
2023-05-15T18:34:11.746Z,99775.00
2023-05-15T18:37:00.396Z,99742.72
2023-05-15T18:39:48.925Z,99781.88
2023-05-15T18:42:37.426Z,99780.25
2023-05-15T18:45:27.439Z,99769.44
2023-05-15T18:48:16.131Z,99775.19
2023-05-15T18:51:04.929Z,99774.59
2023-05-15T18:53:53.364Z,99768.88
2023-05-15T18:56:43.138Z,99752.63
2023-05-15T18:59:31.982Z,99776.88
2023-05-15T19:02:23.051Z,99774.09
2023-05-15T19:05:13.688Z,99767.78
2023-05-15T19:08:02.842Z,99777.53
2023-05-15T19:10:51.723Z,99743.28
2023-05-15T19:13:40.190Z,99774.34
2023-05-15T19:16:28.882Z,99776.25
2023-05-15T19:19:19.035Z,99794.09
2023-05-15T19:22:07.652Z,99787.56
2023-05-15T19:24:56.200Z,99785.56
2023-05-15T19:27:44.807Z,99781.66
2023-05-15T19:30:33.370Z,99784.25
2023-05-15T19:33:22.048Z,99774.00
2023-05-15T19:36:12.528Z,99780.56
2023-05-15T19:39:01.090Z,99774.50
2023-05-15T19:41:49.678Z,99782.84
2023-05-15T19:44:38.223Z,99784.00
2023-05-15T19:47:27.427Z,99784.22
2023-05-15T19:50:16.228Z,99792.69
2023-05-15T19:53:06.482Z,99711.66
2023-05-15T19:55:55.064Z,99803.56
2023-05-15T19:58:43.733Z,99803.44
2023-05-15T20:01:32.335Z,99800.97
2023-05-15T20:04:21.044Z,99804.38
2023-05-15T20:07:09.623Z,99806.84
2023-05-15T20:09:59.659Z,99808.81
2023-05-15T20:12:48.642Z,99812.97
2023-05-15T20:15:40.028Z,99819.94
2023-05-15T20:18:32.980Z,99820.41
2023-05-15T20:21:23.023Z,99799.44
2023-05-15T20:24:12.023Z,99817.16
2023-05-15T20:27:04.029Z,99730.09
2023-05-15T20:29:53.076Z,99815.00
2023-05-15T20:32:41.663Z,99815.47
2023-05-15T20:35:31.026Z,99813.75
2023-05-15T20:38:19.500Z,99813.75
2023-05-15T20:41:08.274Z,99808.81
2023-05-15T20:43:58.215Z,99810.97
2023-05-15T20:46:46.732Z,99822.56
2023-05-15T20:49:35.486Z,99820.81
2023-05-15T20:52:24.055Z,99830.53
2023-05-15T20:55:15.903Z,99826.44
2023-05-15T20:58:04.633Z,99833.13
2023-05-15T21:00:54.573Z,99842.41
2023-05-15T21:03:43.224Z,99841.41
2023-05-15T21:06:32.037Z,99841.94
2023-05-15T21:09:20.550Z,99837.50
2023-05-15T21:12:09.204Z,99843.44
2023-05-15T21:14:57.930Z,99840.66
2023-05-15T21:17:47.761Z,99841.22
2023-05-15T21:20:36.333Z,99812.66
2023-05-15T21:23:24.885Z,99849.34
2023-05-15T21:26:13.411Z,99848.78
2023-05-15T21:29:02.386Z,99841.47
2023-05-15T21:31:50.975Z,99840.44
2023-05-15T21:34:41.102Z,99844.41
2023-05-15T21:37:29.538Z,99848.19
2023-05-15T21:40:18.072Z,99854.88
2023-05-15T21:43:06.528Z,99848.66
2023-05-15T21:45:55.687Z,99857.91
2023-05-15T21:48:44.117Z,99849.56
2023-05-15T21:51:34.519Z,99845.88
2023-05-15T21:54:22.952Z,99839.41
2023-05-15T21:57:11.882Z,99843.72
2023-05-15T22:00:00.564Z,99839.63
2023-05-15T22:02:49.371Z,99841.75
2023-05-15T22:05:37.913Z,99832.72
2023-05-15T22:08:27.792Z,99840.94
2023-05-15T22:11:17.162Z,99844.69
2023-05-15T22:14:05.910Z,99842.13
2023-05-15T22:16:54.484Z,99802.25
2023-05-15T22:19:43.110Z,99839.53
2023-05-15T22:22:31.647Z,99844.25
2023-05-15T22:25:21.658Z,99841.09
2023-05-15T22:28:10.190Z,99848.00
2023-05-15T22:30:58.647Z,99846.59
2023-05-15T22:33:47.238Z,99841.69
2023-05-15T22:36:36.746Z,99823.25
2023-05-15T22:39:25.227Z,99840.16
2023-05-15T22:42:15.172Z,99855.75
2023-05-15T22:45:04.020Z,99854.13
2023-05-15T22:47:52.978Z,99860.34
2023-05-15T22:50:41.743Z,99852.94
2023-05-15T22:53:30.202Z,99864.56
2023-05-15T22:56:18.751Z,99864.94
2023-05-15T22:59:08.635Z,99856.47
2023-05-15T23:01:57.128Z,99856.16
2023-05-15T23:04:45.567Z,99865.72
2023-05-15T23:07:34.120Z,99856.13
2023-05-15T23:10:22.963Z,99865.16
2023-05-15T23:13:11.528Z,99853.22
2023-05-15T23:16:01.475Z,99864.56
2023-05-15T23:18:50.116Z,99860.81
2023-05-15T23:21:38.958Z,99872.44
2023-05-15T23:24:27.510Z,99863.50
2023-05-15T23:27:16.040Z,99860.09
2023-05-15T23:30:05.126Z,99869.41
2023-05-15T23:32:56.546Z,99867.75
2023-05-15T23:35:45.346Z,99865.97
2023-05-15T23:38:33.929Z,99863.75
2023-05-15T23:41:22.923Z,99864.34
2023-05-15T23:44:11.452Z,99833.47
2023-05-15T23:46:59.933Z,99864.13
2023-05-15T23:49:49.802Z,99873.84
2023-05-15T23:52:38.453Z,99873.25
2023-05-15T23:55:26.971Z,99869.16
2023-05-15T23:58:15.407Z,99873.75
